Time,TemperatureF,DewpointF,PressureIn,WindDirection,WindDirectionDegrees,WindSpeedMPH,WindSpeedGustMPH,Humidity,HourlyPrecipIn,Conditions,Clouds,dailyrainin,SoftwareType,DateUTC
2014-12-19 00:01:00,27.8,23.6,30.13,WNW,302,4.1,6.9,84,0.00,CLR,,0.00,WeatherDisplay:10.37,2014-12-19 05:01:00,
2014-12-19 00:06:00,27.7,23.5,30.13,WNW,300,3.3,8.1,84,0.00,CLR,,0.00,WeatherDisplay:10.37,2014-12-19 05:06:00,
2014-12-19 00:11:00,27.6,23.4,30.13,WNW,294,6.5,9.2,84,0.00,CLR,,0.00,WeatherDisplay:10.37,2014-12-19 05:11:00,
2014-12-19 00:16:00,27.5,23.3,30.14,WNW,300,6.1,11.5,84,0.00,CLR,,0.00,WeatherDisplay:10.37,2014-12-19 05:16:00,
2014-12-19 00:21:00,27.4,22.9,30.13,NW,305,7.2,11.5,83,0.00,CLR,,0.00,WeatherDisplay:10.37,2014-12-19 05:21:00,
2014-12-19 00:26:00,27.2,22.7,30.13,WNW,296,6.5,11.5,83,0.00,CLR,,0.00,WeatherDisplay:10.37,2014-12-19 05:26:00,
2014-12-19 00:31:00,27.0,22.5,30.13,WNW,300,6.6,10.4,83,0.00,CLR,,0.00,WeatherDisplay:10.37,2014-12-19 05:31:00,
2014-12-19 00:36:00,27.0,22.5,30.13,WNW,299,0.0,0.0,83,0.00,CLR,,0.00,WeatherDisplay:10.37,2014-12-19 05:36:00,
2014-12-19 00:41:00,27.0,22.5,30.14,WNW,302,6.7,9.2,83,0.00,CLR,,0.00,WeatherDisplay:10.37,2014-12-19 05:41:00,
2014-12-19 00:46:00,26.9,22.4,30.14,WNW,298,3.2,10.4,83,0.00,CLR,,0.00,WeatherDisplay:10.37,2014-12-19 05:46:00,
2014-12-19 00:51:00,26.9,22.4,30.14,WNW,298,6.0,10.4,83,0.00,CLR,,0.00,WeatherDisplay:10.37,2014-12-19 05:51:00,
2014-12-19 00:56:00,26.9,22.7,30.14,WNW,296,6.1,10.4,84,0.00,CLR,,0.00,WeatherDisplay:10.37,2014-12-19 05:56:00,
2014-12-19 01:01:00,26.9,22.7,30.14,WNW,298,4.3,8.1,84,0.00,CLR,,0.00,WeatherDisplay:10.37,2014-12-19 06:01:00,
2014-12-19 01:06:00,26.9,22.7,30.14,NW,323,6.8,11.5,84,0.00,CLR,,0.00,WeatherDisplay:10.37,2014-12-19 06:06:00,
2014-12-19 01:11:00,26.9,22.7,30.14,WNW,303,5.3,11.5,84,0.00,CLR,,0.00,WeatherDisplay:10.37,2014-12-19 06:11:00,
2014-12-19 01:16:00,26.9,22.7,30.15,WNW,303,2.6,7.0,84,0.00,CLR,,0.00,WeatherDisplay:10.37,2014-12-19 06:16:00,
2014-12-19 01:21:00,26.9,22.7,30.14,WNW,299,2.0,6.9,84,0.00,CLR,,0.00,WeatherDisplay:10.37,2014-12-19 06:21:00,
2014-12-19 01:26:00,26.8,22.6,30.15,NW,306,4.9,7.0,84,0.00,CLR,,0.00,WeatherDisplay:10.37,2014-12-19 06:26:00,
2014-12-19 01:31:00,26.8,22.6,30.15,WNW,296,4.7,11.5,84,0.00,CLR,,0.00,WeatherDisplay:10.37,2014-12-19 06:31:00,
2014-12-19 01:36:00,26.7,22.5,30.14,WNW,296,1.8,3.5,84,0.00,CLR,,0.00,WeatherDisplay:10.37,2014-12-19 06:36:00,
2014-12-19 01:41:00,26.7,22.5,30.14,WNW,296,3.4,4.6,84,0.00,CLR,,0.00,WeatherDisplay:10.37,2014-12-19 06:41:00,
2014-12-19 01:46:00,26.6,22.1,30.14,WNW,298,5.1,10.4,83,0.00,CLR,,0.00,WeatherDisplay:10.37,2014-12-19 06:46:00,
2014-12-19 01:51:00,26.6,22.1,30.14,NW,304,6.5,11.5,83,0.00,CLR,,0.00,WeatherDisplay:10.37,2014-12-19 06:51:00,
2014-12-19 01:56:00,26.5,22.0,30.15,WNW,292,3.0,4.6,83,0.00,CLR,,0.00,WeatherDisplay:10.37,2014-12-19 06:56:00,
2014-12-19 02:01:00,26.4,21.9,30.15,NW,309,5.2,8.1,83,0.00,,,0.00,WeatherDisplay:10.37,2014-12-19 07:01:00,
2014-12-19 02:06:00,26.3,21.8,30.15,NW,322,5.0,10.4,83,0.00,,,0.00,WeatherDisplay:10.37,2014-12-19 07:06:00,
2014-12-19 02:11:00,26.2,21.7,30.15,NNW,336,6.2,10.4,83,0.00,,,0.00,WeatherDisplay:10.37,2014-12-19 07:11:00,
2014-12-19 02:16:00,26.1,21.6,30.15,NW,312,3.0,8.1,83,0.00,,,0.00,WeatherDisplay:10.37,2014-12-19 07:16:00,
2014-12-19 02:21:00,26.1,21.6,30.15,NW,311,1.6,3.5,83,0.00,,,0.00,WeatherDisplay:10.37,2014-12-19 07:21:00,
2014-12-19 02:26:00,26.0,21.5,30.16,WNW,300,6.7,11.5,83,0.00,,,0.00,WeatherDisplay:10.37,2014-12-19 07:26:00,
2014-12-19 02:31:00,26.0,21.5,30.16,WNW,299,3.0,6.9,83,0.00,,,0.00,WeatherDisplay:10.37,2014-12-19 07:31:00,
2014-12-19 02:36:00,26.0,21.5,30.16,WNW,296,2.4,9.2,83,0.00,,,0.00,WeatherDisplay:10.37,2014-12-19 07:36:00,
2014-12-19 02:41:00,25.9,21.4,30.17,NW,320,3.9,9.0,83,0.00,,,0.00,WeatherDisplay:10.37,2014-12-19 07:41:00,
2014-12-19 02:46:00,25.9,21.4,30.17,NW,307,2.6,9.0,83,0.00,,,0.00,WeatherDisplay:10.37,2014-12-19 07:46:00,
2014-12-19 02:51:00,25.9,21.2,30.16,WNW,300,1.0,3.5,82,0.00,,,0.00,WeatherDisplay:10.37,2014-12-19 07:51:00,
2014-12-19 02:56:00,26.0,21.3,30.16,WNW,300,3.2,8.1,82,0.00,,,0.00,WeatherDisplay:10.37,2014-12-19 07:56:00,
2014-12-19 03:01:00,26.0,21.3,30.16,WNW,300,2.9,9.2,82,0.00,CLR,,0.00,WeatherDisplay:10.37,2014-12-19 08:01:00,
2014-12-19 03:06:00,26.0,21.3,30.16,NW,304,1.4,3.5,82,0.00,CLR,,0.00,WeatherDisplay:10.37,2014-12-19 08:06:00,
2014-12-19 03:11:00,26.1,21.4,30.16,WNW,302,3.7,6.9,82,0.00,CLR,,0.00,WeatherDisplay:10.37,2014-12-19 08:11:00,
2014-12-19 03:16:00,26.1,21.1,30.16,WNW,302,4.7,10.0,81,0.00,CLR,,0.00,WeatherDisplay:10.37,2014-12-19 08:16:00,
2014-12-19 03:21:00,26.1,21.1,30.16,WNW,299,4.6,10.4,81,0.00,CLR,,0.00,WeatherDisplay:10.37,2014-12-19 08:21:00,
2014-12-19 03:26:00,26.2,20.9,30.16,WNW,299,2.8,5.0,80,0.00,CLR,,0.00,WeatherDisplay:10.37,2014-12-19 08:26:00,
2014-12-19 03:31:00,26.2,20.9,30.16,WNW,298,5.4,10.4,80,0.00,CLR,,0.00,WeatherDisplay:10.37,2014-12-19 08:31:00,
2014-12-19 03:36:00,26.2,20.9,30.16,WNW,297,7.2,11.5,80,0.00,CLR,,0.00,WeatherDisplay:10.37,2014-12-19 08:36:00,
2014-12-19 03:41:00,26.1,20.8,30.16,WNW,299,3.4,13.0,80,0.00,CLR,,0.00,WeatherDisplay:10.37,2014-12-19 08:41:00,
2014-12-19 03:46:00,26.1,21.1,30.16,WNW,296,3.2,8.1,81,0.00,CLR,,0.00,WeatherDisplay:10.37,2014-12-19 08:46:00,
2014-12-19 03:51:00,26.0,21.0,30.16,WNW,298,3.7,8.1,81,0.00,CLR,,0.00,WeatherDisplay:10.37,2014-12-19 08:51:00,
2014-12-19 03:56:00,25.9,20.9,30.16,WNW,303,7.4,11.5,81,0.00,CLR,,0.00,WeatherDisplay:10.37,2014-12-19 08:56:00,
2014-12-19 04:01:00,25.8,20.8,30.16,NW,320,3.1,5.8,81,0.00,CLR,,0.00,WeatherDisplay:10.37,2014-12-19 09:01:00,
2014-12-19 04:06:00,25.7,20.7,30.16,WNW,287,5.1,9.2,81,0.00,CLR,,0.00,WeatherDisplay:10.37,2014-12-19 09:06:00,
2014-12-19 04:11:00,25.7,20.7,30.16,WNW,286,3.9,9.2,81,0.00,CLR,,0.00,WeatherDisplay:10.37,2014-12-19 09:11:00,
2014-12-19 04:16:00,25.6,20.6,30.16,WNW,294,6.5,10.4,81,0.00,CLR,,0.00,WeatherDisplay:10.37,2014-12-19 09:16:00,
2014-12-19 04:21:00,25.6,20.6,30.16,NW,307,2.4,6.9,81,0.00,CLR,,0.00,WeatherDisplay:10.37,2014-12-19 09:21:00,
2014-12-19 04:26:00,25.7,20.7,30.16,WNW,295,5.4,11.5,81,0.00,CLR,,0.00,WeatherDisplay:10.37,2014-12-19 09:26:00,
2014-12-19 04:31:00,25.6,20.6,30.16,WNW,295,2.9,4.6,81,0.00,CLR,,0.00,WeatherDisplay:10.37,2014-12-19 09:31:00,
2014-12-19 04:36:00,25.6,20.6,30.16,WNW,292,5.7,9.2,81,0.00,CLR,,0.00,WeatherDisplay:10.37,2014-12-19 09:36:00,
2014-12-19 04:41:00,25.6,20.6,30.16,WNW,295,6.7,11.5,81,0.00,CLR,,0.00,WeatherDisplay:10.37,2014-12-19 09:41:00,
2014-12-19 04:46:00,25.6,20.6,30.16,WNW,295,2.3,3.5,81,0.00,CLR,,0.00,WeatherDisplay:10.37,2014-12-19 09:46:00,
2014-12-19 04:51:00,25.7,20.7,30.16,WNW,295,2.5,6.9,81,0.00,CLR,,0.00,WeatherDisplay:10.37,2014-12-19 09:51:00,
2014-12-19 04:56:00,25.7,21.0,30.16,WNW,295,2.3,3.5,82,0.00,CLR,,0.00,WeatherDisplay:10.37,2014-12-19 09:56:00,
2014-12-19 05:01:00,25.7,21.0,30.16,WNW,288,2.0,6.9,82,0.00,CLR,,0.00,WeatherDisplay:10.37,2014-12-19 10:01:00,
2014-12-19 05:06:00,25.7,21.0,30.16,WNW,296,2.7,6.9,82,0.00,CLR,,0.00,WeatherDisplay:10.37,2014-12-19 10:06:00,
2014-12-19 05:11:00,25.7,20.7,30.16,WNW,290,3.1,8.1,81,0.00,CLR,,0.00,WeatherDisplay:10.37,2014-12-19 10:11:00,
2014-12-19 05:16:00,25.7,20.7,30.16,WNW,283,2.6,5.8,81,0.00,CLR,,0.00,WeatherDisplay:10.37,2014-12-19 10:16:00,
2014-12-19 05:21:00,25.7,21.0,30.16,WNW,283,1.8,5.8,82,0.00,CLR,,0.00,WeatherDisplay:10.37,2014-12-19 10:21:00,
2014-12-19 05:26:00,25.7,20.7,30.16,WNW,284,2.9,5.8,81,0.00,CLR,,0.00,WeatherDisplay:10.37,2014-12-19 10:26:00,
2014-12-19 05:31:00,25.7,20.7,30.16,WNW,286,2.7,5.8,81,0.00,CLR,,0.00,WeatherDisplay:10.37,2014-12-19 10:31:00,
2014-12-19 05:36:00,25.7,21.0,30.17,WNW,286,2.7,3.5,82,0.00,CLR,,0.00,WeatherDisplay:10.37,2014-12-19 10:36:00,
2014-12-19 05:41:00,25.7,21.0,30.17,WNW,286,2.9,5.8,82,0.00,CLR,,0.00,WeatherDisplay:10.37,2014-12-19 10:41:00,
2014-12-19 05:46:00,25.7,21.0,30.17,WNW,284,0.6,5.8,82,0.00,CLR,,0.00,WeatherDisplay:10.37,2014-12-19 10:46:00,
2014-12-19 05:51:00,25.7,21.0,30.17,WNW,284,0.6,2.0,82,0.00,CLR,,0.00,WeatherDisplay:10.37,2014-12-19 10:51:00,
2014-12-19 05:56:00,25.7,21.0,30.17,West,281,4.1,9.2,82,0.00,CLR,,0.00,WeatherDisplay:10.37,2014-12-19 10:56:00,
2014-12-19 06:01:00,25.7,21.0,30.18,West,281,2.1,3.5,82,0.00,,,0.00,WeatherDisplay:10.37,2014-12-19 11:01:00,
2014-12-19 06:06:00,25.7,21.0,30.17,NNW,327,5.2,10.4,82,0.00,,,0.00,WeatherDisplay:10.37,2014-12-19 11:06:00,
2014-12-19 06:11:00,25.6,20.9,30.18,NW,323,1.6,3.5,82,0.00,,,0.00,WeatherDisplay:10.37,2014-12-19 11:11:00,
2014-12-19 06:16:00,25.6,21.2,30.18,NW,323,2.7,3.5,83,0.00,,,0.00,WeatherDisplay:10.37,2014-12-19 11:16:00,
2014-12-19 06:21:00,25.4,21.0,30.18,NW,323,2.6,5.8,83,0.00,,,0.00,WeatherDisplay:10.37,2014-12-19 11:21:00,
2014-12-19 06:26:00,25.4,21.0,30.19,NW,323,2.2,3.5,83,0.00,,,0.00,WeatherDisplay:10.37,2014-12-19 11:26:00,
2014-12-19 06:31:00,25.3,20.9,30.18,NW,323,1.7,5.8,83,0.00,,,0.00,WeatherDisplay:10.37,2014-12-19 11:31:00,
2014-12-19 06:36:00,25.3,20.9,30.19,NW,322,1.3,5.0,83,0.00,,,0.00,WeatherDisplay:10.37,2014-12-19 11:36:00,
2014-12-19 06:41:00,25.2,20.8,30.19,NW,321,2.8,4.6,83,0.00,,,0.00,WeatherDisplay:10.37,2014-12-19 11:41:00,
2014-12-19 06:51:00,25.2,20.5,30.19,WNW,303,3.3,6.9,82,0.00,,,0.00,WeatherDisplay:10.37,2014-12-19 11:51:00,
2014-12-19 06:56:00,25.3,20.6,30.20,WNW,303,3.1,4.6,82,0.00,,,0.00,WeatherDisplay:10.37,2014-12-19 11:56:00,
2014-12-19 07:01:00,25.3,20.6,30.19,NW,310,4.1,8.1,82,0.00,,,0.00,WeatherDisplay:10.37,2014-12-19 12:01:00,
2014-12-19 07:06:00,25.3,20.6,30.19,NW,310,2.0,3.5,82,0.00,,,0.00,WeatherDisplay:10.37,2014-12-19 12:06:00,
2014-12-19 07:11:00,25.3,20.6,30.20,NW,309,0.0,0.0,82,0.00,,,0.00,WeatherDisplay:10.37,2014-12-19 12:11:00,
2014-12-19 07:16:00,25.3,20.6,30.20,NW,309,2.5,4.6,82,0.00,,,0.00,WeatherDisplay:10.37,2014-12-19 12:16:00,
2014-12-19 07:21:00,25.3,20.6,30.20,NW,309,0.5,3.5,82,0.00,,,0.00,WeatherDisplay:10.37,2014-12-19 12:21:00,
2014-12-19 07:26:00,25.3,20.9,30.20,NW,309,0.8,4.0,83,0.00,,,0.00,WeatherDisplay:10.37,2014-12-19 12:26:00,
2014-12-19 07:31:00,25.3,20.9,30.20,NW,309,2.4,8.0,83,0.00,,,0.00,WeatherDisplay:10.37,2014-12-19 12:31:00,
2014-12-19 07:36:00,25.3,20.9,30.20,NW,309,1.2,8.0,83,0.00,,,0.00,WeatherDisplay:10.37,2014-12-19 12:36:00,
2014-12-19 07:41:00,25.3,20.9,30.20,WNW,288,0.1,3.5,83,0.00,,,0.00,WeatherDisplay:10.37,2014-12-19 12:41:00,
2014-12-19 07:46:00,25.3,20.9,30.20,WNW,288,1.9,3.5,83,0.00,,,0.00,WeatherDisplay:10.37,2014-12-19 12:46:00,
2014-12-19 07:51:00,25.3,20.9,30.20,WNW,288,0.5,3.5,83,0.00,,,0.00,WeatherDisplay:10.37,2014-12-19 12:51:00,
2014-12-19 07:56:00,25.3,20.9,30.20,WNW,288,2.9,4.6,83,0.00,,,0.00,WeatherDisplay:10.37,2014-12-19 12:56:00,
2014-12-19 08:01:00,25.4,21.0,30.21,WNW,288,1.3,3.5,83,0.00,CLR,,0.00,WeatherDisplay:10.37,2014-12-19 13:01:00,
2014-12-19 08:06:00,25.4,21.2,30.21,WNW,288,2.3,3.5,84,0.00,CLR,,0.00,WeatherDisplay:10.37,2014-12-19 13:06:00,
2014-12-19 08:11:00,25.4,21.2,30.21,WNW,288,0.2,2.3,84,0.00,CLR,,0.00,WeatherDisplay:10.37,2014-12-19 13:11:00,
2014-12-19 08:16:00,25.4,21.2,30.21,WNW,288,1.9,3.5,84,0.00,CLR,,0.00,WeatherDisplay:10.37,2014-12-19 13:16:00,
2014-12-19 08:21:00,25.5,21.3,30.22,WNW,288,1.1,7.0,84,0.00,CLR,,0.00,WeatherDisplay:10.37,2014-12-19 13:21:00,
2014-12-19 08:26:00,25.6,21.4,30.22,WNW,290,5.8,9.2,84,0.00,CLR,,0.00,WeatherDisplay:10.37,2014-12-19 13:26:00,
2014-12-19 08:31:00,25.6,21.2,30.22,WNW,290,3.8,6.9,83,0.00,CLR,,0.00,WeatherDisplay:10.37,2014-12-19 13:31:00,
2014-12-19 08:36:00,25.6,21.4,30.22,WNW,290,0.8,4.6,84,0.00,CLR,,0.00,WeatherDisplay:10.37,2014-12-19 13:36:00,
2014-12-19 08:41:00,25.6,21.4,30.22,WNW,289,0.8,3.5,84,0.00,CLR,,0.00,WeatherDisplay:10.37,2014-12-19 13:41:00,
2014-12-19 08:46:00,25.6,21.4,30.22,WNW,290,3.5,8.1,84,0.00,CLR,,0.00,WeatherDisplay:10.37,2014-12-19 13:46:00,
2014-12-19 08:51:00,25.6,21.4,30.22,WNW,283,2.1,6.0,84,0.00,CLR,,0.00,WeatherDisplay:10.37,2014-12-19 13:51:00,
2014-12-19 08:56:00,25.6,21.2,30.22,WNW,284,3.1,8.1,83,0.00,CLR,,0.00,WeatherDisplay:10.37,2014-12-19 13:56:00,
2014-12-19 09:01:00,25.6,21.2,30.22,West,281,4.3,8.1,83,0.00,CLR,,0.00,WeatherDisplay:10.37,2014-12-19 14:01:00,
2014-12-19 09:06:00,25.7,21.0,30.23,West,274,3.8,8.1,82,0.00,CLR,,0.00,WeatherDisplay:10.37,2014-12-19 14:06:00,
2014-12-19 09:11:00,25.7,21.0,30.23,West,273,4.2,8.0,82,0.00,CLR,,0.00,WeatherDisplay:10.37,2014-12-19 14:11:00,
2014-12-19 09:16:00,25.7,21.0,30.24,WNW,295,4.3,7.0,82,0.00,CLR,,0.00,WeatherDisplay:10.37,2014-12-19 14:16:00,
2014-12-19 09:21:00,25.8,21.1,30.24,WNW,289,3.6,9.2,82,0.00,CLR,,0.00,WeatherDisplay:10.37,2014-12-19 14:21:00,
2014-12-19 09:26:00,25.8,21.1,30.24,WNW,288,3.6,10.4,82,0.00,CLR,,0.00,WeatherDisplay:10.37,2014-12-19 14:26:00,
2014-12-19 09:31:00,25.9,20.9,30.24,West,275,1.9,5.8,81,0.00,CLR,,0.00,WeatherDisplay:10.37,2014-12-19 14:31:00,
2014-12-19 09:36:00,25.9,20.9,30.24,West,279,4.1,8.0,81,0.00,CLR,,0.00,WeatherDisplay:10.37,2014-12-19 14:36:00,
2014-12-19 09:41:00,25.9,20.9,30.24,WNW,292,6.2,10.4,81,0.00,CLR,,0.00,WeatherDisplay:10.37,2014-12-19 14:41:00,
2014-12-19 09:46:00,25.9,20.9,30.24,WNW,291,4.6,6.9,81,0.00,CLR,,0.00,WeatherDisplay:10.37,2014-12-19 14:46:00,
2014-12-19 09:51:00,26.0,21.0,30.24,WNW,292,4.9,10.4,81,0.00,CLR,,0.00,WeatherDisplay:10.37,2014-12-19 14:51:00,
2014-12-19 09:56:00,26.0,21.0,30.25,WNW,291,0.6,3.5,81,0.00,CLR,,0.00,WeatherDisplay:10.37,2014-12-19 14:56:00,
2014-12-19 10:01:00,26.1,21.1,30.25,West,275,1.9,3.5,81,0.00,CLR,,0.00,WeatherDisplay:10.37,2014-12-19 15:01:00,
2014-12-19 10:06:00,26.1,21.1,30.25,West,268,6.0,9.2,81,0.00,CLR,,0.00,WeatherDisplay:10.37,2014-12-19 15:06:00,
2014-12-19 10:11:00,26.1,20.8,30.25,West,267,4.8,8.1,80,0.00,CLR,,0.00,WeatherDisplay:10.37,2014-12-19 15:11:00,
2014-12-19 10:16:00,26.2,20.9,30.25,WNW,283,4.8,9.2,80,0.00,CLR,,0.00,WeatherDisplay:10.37,2014-12-19 15:16:00,
2014-12-19 10:21:00,26.3,21.0,30.25,WNW,287,2.7,8.1,80,0.00,CLR,,0.00,WeatherDisplay:10.37,2014-12-19 15:21:00,
2014-12-19 10:26:00,26.3,21.0,30.25,WNW,283,4.2,8.1,80,0.00,CLR,,0.00,WeatherDisplay:10.37,2014-12-19 15:26:00,
2014-12-19 10:31:00,26.3,21.0,30.25,West,279,2.3,7.0,80,0.00,CLR,,0.00,WeatherDisplay:10.37,2014-12-19 15:31:00,
2014-12-19 10:36:00,26.3,21.0,30.25,WSW,257,7.6,11.5,80,0.00,CLR,,0.00,WeatherDisplay:10.37,2014-12-19 15:36:00,
2014-12-19 10:41:00,26.4,21.1,30.25,WSW,258,5.2,10.4,80,0.00,CLR,,0.00,WeatherDisplay:10.37,2014-12-19 15:41:00,
2014-12-19 10:46:00,26.3,20.7,30.25,West,264,1.2,3.5,79,0.00,CLR,,0.00,WeatherDisplay:10.37,2014-12-19 15:46:00,